Time;durP1;ratioP1;P1;durP2;ratioP2;P2;SDS_P1;SDS_P2;PMS_P1;PMS_P2;Temp;Humidity;BMP_temperature;BMP_pressure;BME280_temperature;BME280_humidity;BME280_pressure;Samples;Min_cycle;Max_cycle;Signal;HPM_P1;HPM_P2
2023/06/05 00:02:05;;;;;;;4.00;3.10;;;;;;;;;;5098696;28;20559;-58
2023/06/05 00:04:31;;;;;;;4.70;3.13;;;;;;;;;;5099262;28;20475;-60
2023/06/05 00:06:57;;;;;;;4.13;3.23;;;;;;;;;;5099496;28;20483;-58
2023/06/05 00:09:24;;;;;;;4.40;2.80;;;;;;;;;;5100130;28;20452;-59
2023/06/05 00:11:50;;;;;;;4.33;3.10;;;;;;;;;;5099258;28;20916;-58
2023/06/05 00:14:17;;;;;;;3.97;2.93;;;;;;;;;;5100316;28;20529;-58
2023/06/05 00:16:43;;;;;;;7.37;2.67;;;;;;;;;;5099786;28;20530;-58
2023/06/05 00:19:11;;;;;;;4.00;2.40;;;;;;;;;;5097918;28;20482;-58
2023/06/05 00:21:37;;;;;;;4.93;2.80;;;;;;;;;;5099701;28;20479;-58
2023/06/05 00:24:04;;;;;;;3.83;2.83;;;;;;;;;;5100578;28;20454;-58
2023/06/05 00:26:30;;;;;;;5.33;3.37;;;;;;;;;;5098917;28;20510;-58
2023/06/05 00:28:56;;;;;;;3.00;2.47;;;;;;;;;;5099976;28;20967;-59
2023/06/05 00:31:23;;;;;;;4.80;2.90;;;;;;;;;;5099521;28;20534;-59
2023/06/05 00:33:51;;;;;;;3.70;2.50;;;;;;;;;;5099937;28;20531;-58
2023/06/05 00:36:22;;;;;;;4.37;3.07;;;;;;;;;;5099419;28;20506;-59
2023/06/05 00:38:48;;;;;;;6.63;3.40;;;;;;;;;;5102838;28;20481;-58
2023/06/05 00:41:15;;;;;;;3.97;3.57;;;;;;;;;;5099415;28;20542;-59
2023/06/05 00:43:41;;;;;;;4.30;3.40;;;;;;;;;;5095963;28;20526;-60
2023/06/05 00:46:08;;;;;;;5.20;3.83;;;;;;;;;;5103649;28;20526;-60
2023/06/05 00:48:35;;;;;;;5.20;2.90;;;;;;;;;;5102437;28;20542;-60
2023/06/05 00:51:01;;;;;;;5.57;4.07;;;;;;;;;;5103714;28;20475;-60
2023/06/05 00:53:31;;;;;;;6.37;3.70;;;;;;;;;;5104110;28;20485;-60
2023/06/05 00:55:57;;;;;;;5.83;4.30;;;;;;;;;;5102136;28;20490;-60
2023/06/05 00:58:24;;;;;;;5.17;3.13;;;;;;;;;;5103794;28;20454;-60
2023/06/05 01:00:51;;;;;;;4.93;3.63;;;;;;;;;;5103420;28;20903;-60
2023/06/05 01:03:17;;;;;;;4.53;3.13;;;;;;;;;;5103363;28;20510;-60
2023/06/05 01:05:47;;;;;;;6.40;2.90;;;;;;;;;;5102380;28;20547;-60
2023/06/05 01:08:16;;;;;;;7.03;3.53;;;;;;;;;;5103360;28;20520;-60
2023/06/05 01:10:44;;;;;;;6.07;3.57;;;;;;;;;;5102798;28;20471;-60
2023/06/05 01:13:15;;;;;;;5.90;3.90;;;;;;;;;;5103006;28;21008;-60
2023/06/05 01:15:41;;;;;;;4.67;3.40;;;;;;;;;;5102879;28;20542;-61
2023/06/05 01:18:10;;;;;;;6.13;2.93;;;;;;;;;;5102946;28;20444;-60
2023/06/05 01:20:37;;;;;;;4.77;3.63;;;;;;;;;;5102585;28;20481;-60
2023/06/05 01:23:04;;;;;;;6.80;3.90;;;;;;;;;;5103383;28;20597;-60
2023/06/05 01:25:32;;;;;;;4.20;3.40;;;;;;;;;;5102655;28;20490;-60
2023/06/05 01:28:00;;;;;;;8.80;3.40;;;;;;;;;;5103080;28;20586;-60
2023/06/05 01:30:29;;;;;;;5.37;3.10;;;;;;;;;;5102277;28;20463;-60
2023/06/05 01:33:01;;;;;;;4.10;3.23;;;;;;;;;;5102159;28;20455;-60
2023/06/05 01:35:32;;;;;;;7.63;4.30;;;;;;;;;;5102563;28;20998;-60
2023/06/05 01:37:59;;;;;;;8.20;3.10;;;;;;;;;;5110855;28;20821;-61
2023/06/05 01:40:27;;;;;;;6.50;3.30;;;;;;;;;;5101566;28;21046;-60
2023/06/05 01:42:55;;;;;;;3.80;3.23;;;;;;;;;;5099640;28;20471;-61
2023/06/05 01:45:22;;;;;;;5.30;4.20;;;;;;;;;;5101933;28;20482;-61
2023/06/05 01:47:49;;;;;;;4.40;3.20;;;;;;;;;;5101834;28;20530;-60
2023/06/05 01:50:16;;;;;;;6.17;3.30;;;;;;;;;;5102289;28;20477;-60
2023/06/05 01:52:44;;;;;;;4.73;3.60;;;;;;;;;;5102547;28;20451;-60
2023/06/05 01:55:16;;;;;;;5.80;3.80;;;;;;;;;;5101013;28;20518;-59
2023/06/05 01:57:44;;;;;;;5.00;3.47;;;;;;;;;;5101979;28;20498;-59
2023/06/05 02:00:13;;;;;;;6.43;3.93;;;;;;;;;;5102244;28;20533;-60
2023/06/05 02:02:40;;;;;;;5.70;3.70;;;;;;;;;;5101617;28;20520;-60
2023/06/05 02:05:07;;;;;;;5.10;3.00;;;;;;;;;;5102302;28;20443;-60
2023/06/05 02:07:33;;;;;;;3.87;3.20;;;;;;;;;;5101793;28;21045;-60
2023/06/05 02:10:02;;;;;;;6.53;4.00;;;;;;;;;;5101644;28;20459;-60
2023/06/05 02:12:29;;;;;;;5.60;4.03;;;;;;;;;;5101211;28;20573;-60
2023/06/05 02:14:57;;;;;;;5.87;3.90;;;;;;;;;;5102152;28;20490;-60
2023/06/05 02:17:24;;;;;;;5.83;3.83;;;;;;;;;;5088470;28;20513;-60
2023/06/05 02:19:51;;;;;;;4.63;3.60;;;;;;;;;;5102289;28;20999;-60
2023/06/05 02:22:17;;;;;;;6.90;3.87;;;;;;;;;;5101713;28;20538;-60
2023/06/05 02:24:43;;;;;;;6.77;3.70;;;;;;;;;;5102092;28;20481;-61
2023/06/05 02:27:10;;;;;;;6.80;3.90;;;;;;;;;;5101532;28;20553;-60
2023/06/05 02:29:37;;;;;;;5.87;3.83;;;;;;;;;;5101600;28;20500;-60
2023/06/05 02:32:06;;;;;;;6.97;5.80;;;;;;;;;;5101379;28;20505;-60
2023/06/05 02:34:32;;;;;;;6.30;3.10;;;;;;;;;;5109655;28;20458;-61
2023/06/05 02:36:59;;;;;;;5.80;4.03;;;;;;;;;;5101428;28;20478;-61
2023/06/05 02:39:25;;;;;;;8.60;3.77;;;;;;;;;;5101476;28;20478;-61
2023/06/05 02:41:52;;;;;;;5.83;3.80;;;;;;;;;;5100784;28;20551;-62
2023/06/05 02:44:18;;;;;;;4.70;3.40;;;;;;;;;;5101729;28;20632;-60
2023/06/05 02:46:44;;;;;;;6.90;4.10;;;;;;;;;;5100857;28;20912;-60
2023/06/05 02:49:14;;;;;;;5.97;4.63;;;;;;;;;;5099676;28;20522;-61
2023/06/05 02:51:40;;;;;;;10.43;4.97;;;;;;;;;;5100814;28;20508;-61
2023/06/05 02:54:07;;;;;;;6.17;3.70;;;;;;;;;;5101640;28;20526;-61
2023/06/05 02:56:34;;;;;;;7.67;4.70;;;;;;;;;;5100080;28;20484;-61
2023/06/05 02:59:02;;;;;;;9.43;4.57;;;;;;;;;;5093777;28;20570;-61
2023/06/05 03:01:34;;;;;;;10.63;5.00;;;;;;;;;;5100673;28;20530;-61
2023/06/05 03:04:02;;;;;;;10.13;4.60;;;;;;;;;;5101456;28;20461;-61
2023/06/05 03:06:33;;;;;;;7.93;5.57;;;;;;;;;;5095962;28;20479;-61
2023/06/05 03:08:59;;;;;;;8.60;4.13;;;;;;;;;;5100701;28;20461;-60
2023/06/05 03:11:26;;;;;;;10.70;4.50;;;;;;;;;;5100690;28;20497;-60
2023/06/05 03:13:52;;;;;;;7.80;4.53;;;;;;;;;;5100946;28;20477;-60
2023/06/05 03:16:19;;;;;;;9.03;4.77;;;;;;;;;;5100438;28;20565;-60
2023/06/05 03:18:47;;;;;;;6.30;4.47;;;;;;;;;;5100406;28;20557;-60
2023/06/05 03:21:13;;;;;;;14.07;5.17;;;;;;;;;;5100336;28;20479;-59
2023/06/05 03:23:41;;;;;;;8.17;4.63;;;;;;;;;;5100899;28;20450;-59
2023/06/05 03:26:07;;;;;;;7.20;4.50;;;;;;;;;;5100058;28;20474;-63
2023/06/05 03:28:34;;;;;;;5.57;4.20;;;;;;;;;;5100694;28;20519;-63
2023/06/05 03:31:00;;;;;;;8.77;4.77;;;;;;;;;;5102800;28;20474;-61
2023/06/05 03:33:27;;;;;;;8.10;4.70;;;;;;;;;;5100492;28;20493;-61
2023/06/05 03:35:55;;;;;;;7.57;4.90;;;;;;;;;;5100395;28;20562;-61
2023/06/05 03:38:21;;;;;;;6.47;5.43;;;;;;;;;;5100778;28;20612;-60
2023/06/05 03:40:49;;;;;;;8.47;4.60;;;;;;;;;;5100464;28;20485;-60
2023/06/05 03:43:16;;;;;;;8.20;4.70;;;;;;;;;;5100293;28;20510;-62
2023/06/05 03:45:42;;;;;;;9.23;5.57;;;;;;;;;;5100238;28;20483;-62
2023/06/05 03:48:09;;;;;;;6.60;4.27;;;;;;;;;;5099721;28;20455;-60
2023/06/05 03:50:38;;;;;;;9.33;6.17;;;;;;;;;;5099556;28;20475;-63
2023/06/05 03:53:04;;;;;;;6.33;4.90;;;;;;;;;;5099607;28;20455;-62
2023/06/05 03:55:40;;;;;;;9.77;5.27;;;;;;;;;;5097384;28;20529;-63
2023/06/05 03:58:08;;;;;;;8.53;4.50;;;;;;;;;;5099221;28;20480;-60
2023/06/05 04:00:35;;;;;;;6.47;5.00;;;;;;;;;;5100874;28;20514;-60
2023/06/05 04:03:01;;;;;;;17.53;5.97;;;;;;;;;;5097381;28;20465;-61
2023/06/05 04:05:28;;;;;;;8.87;5.10;;;;;;;;;;5097013;28;20466;-61
2023/06/05 04:07:54;;;;;;;6.10;4.60;;;;;;;;;;5099786;28;20543;-62
2023/06/05 04:10:21;;;;;;;7.20;4.70;;;;;;;;;;5098914;28;20485;-63
2023/06/05 04:12:47;;;;;;;7.40;5.90;;;;;;;;;;5100307;28;20455;-62
2023/06/05 04:15:15;;;;;;;7.93;5.20;;;;;;;;;;5099931;28;20475;-62
2023/06/05 04:17:41;;;;;;;6.73;4.33;;;;;;;;;;5101001;28;20565;-63
2023/06/05 04:20:13;;;;;;;8.33;5.10;;;;;;;;;;5104234;28;20514;-60
2023/06/05 04:22:40;;;;;;;9.70;4.93;;;;;;;;;;5104176;28;20458;-64
2023/06/05 04:25:06;;;;;;;10.90;5.40;;;;;;;;;;5103344;28;20465;-63
2023/06/05 04:27:32;;;;;;;6.63;5.00;;;;;;;;;;5098980;28;20546;-62
2023/06/05 04:29:59;;;;;;;6.17;4.80;;;;;;;;;;5102404;28;21038;-60
2023/06/05 04:32:27;;;;;;;7.60;4.90;;;;;;;;;;5102230;28;20482;-58
2023/06/05 04:34:53;;;;;;;6.87;4.20;;;;;;;;;;5102789;28;20510;-62
2023/06/05 04:37:19;;;;;;;8.63;5.43;;;;;;;;;;5103411;27;20485;-60
2023/06/05 04:39:46;;;;;;;6.63;5.40;;;;;;;;;;5103457;28;20478;-60
2023/06/05 04:42:12;;;;;;;5.87;4.20;;;;;;;;;;5100488;28;20489;-62
2023/06/05 04:44:38;;;;;;;6.73;4.93;;;;;;;;;;5104330;28;20563;-62
2023/06/05 04:47:06;;;;;;;8.40;5.03;;;;;;;;;;5102668;28;20566;-61
2023/06/05 04:49:34;;;;;;;7.63;4.83;;;;;;;;;;5102423;28;20522;-62
2023/06/05 04:52:00;;;;;;;8.30;5.10;;;;;;;;;;5102223;28;20999;-58
2023/06/05 04:54:26;;;;;;;6.73;5.00;;;;;;;;;;5103354;28;20511;-62
2023/06/05 04:56:53;;;;;;;8.90;5.10;;;;;;;;;;5102628;28;20546;-60
2023/06/05 04:59:19;;;;;;;8.53;5.33;;;;;;;;;;5103538;28;20455;-62
2023/06/05 05:01:47;;;;;;;8.30;5.87;;;;;;;;;;5102197;28;20505;-61
2023/06/05 05:04:14;;;;;;;6.80;5.07;;;;;;;;;;5092915;28;20450;-60
2023/06/05 05:06:47;;;;;;;10.10;6.10;;;;;;;;;;5101695;28;20492;-61
2023/06/05 05:09:13;;;;;;;5.80;4.80;;;;;;;;;;5101725;28;20489;-62
2023/06/05 05:11:39;;;;;;;9.10;6.00;;;;;;;;;;5101941;28;20620;-59
2023/06/05 05:14:06;;;;;;;8.03;5.20;;;;;;;;;;5101863;28;20520;-60
2023/06/05 05:16:32;;;;;;;7.87;5.40;;;;;;;;;;5101901;28;20471;-61
2023/06/05 05:18:59;;;;;;;7.70;5.03;;;;;;;;;;5102482;28;20451;-61
2023/06/05 05:21:25;;;;;;;6.13;4.80;;;;;;;;;;5101071;28;20549;-58
2023/06/05 05:23:53;;;;;;;7.33;5.57;;;;;;;;;;5111814;28;20613;-60
2023/06/05 05:26:20;;;;;;;9.10;6.20;;;;;;;;;;5106491;28;20555;-62
2023/06/05 05:28:46;;;;;;;7.90;5.30;;;;;;;;;;5104864;28;20447;-61
2023/06/05 05:31:12;;;;;;;17.40;5.60;;;;;;;;;;5103856;28;20550;-59
2023/06/05 05:33:39;;;;;;;8.80;6.03;;;;;;;;;;5110581;28;20460;-60
2023/06/05 05:36:05;;;;;;;8.03;5.40;;;;;;;;;;5102443;28;20514;-60
2023/06/05 05:38:32;;;;;;;13.23;6.07;;;;;;;;;;5104053;28;20442;-60
2023/06/05 05:40:59;;;;;;;7.50;5.30;;;;;;;;;;5102507;28;20496;-61
2023/06/05 05:43:26;;;;;;;6.70;4.97;;;;;;;;;;5103100;28;20504;-59
2023/06/05 05:45:52;;;;;;;10.20;5.77;;;;;;;;;;5102391;28;20468;-61
2023/06/05 05:48:19;;;;;;;11.87;5.80;;;;;;;;;;5100996;28;20475;-59
2023/06/05 05:50:45;;;;;;;7.53;5.23;;;;;;;;;;5102157;28;20474;-61
2023/06/05 05:53:12;;;;;;;5.93;4.70;;;;;;;;;;5102620;28;20447;-59
2023/06/05 05:55:38;;;;;;;8.20;5.93;;;;;;;;;;5107669;27;20513;-60
2023/06/05 05:58:06;;;;;;;9.43;6.60;;;;;;;;;;5104110;28;20439;-59
2023/06/05 06:00:34;;;;;;;10.90;6.27;;;;;;;;;;5099748;28;20487;-59
2023/06/05 06:03:00;;;;;;;10.33;5.80;;;;;;;;;;5101690;28;20465;-59
2023/06/05 06:05:29;;;;;;;8.20;5.07;;;;;;;;;;5101894;28;20530;-59
2023/06/05 06:07:55;;;;;;;6.90;5.63;;;;;;;;;;5101433;28;20616;-61
2023/06/05 06:10:22;;;;;;;9.70;5.60;;;;;;;;;;5100340;28;20538;-59
2023/06/05 06:12:48;;;;;;;10.20;6.00;;;;;;;;;;5101286;28;20443;-62
2023/06/05 06:15:16;;;;;;;6.30;5.57;;;;;;;;;;5101134;28;20522;-62
2023/06/05 06:17:43;;;;;;;8.87;5.60;;;;;;;;;;5100354;28;20566;-59
2023/06/05 06:20:12;;;;;;;9.63;6.37;;;;;;;;;;5100484;28;20435;-60
2023/06/05 06:22:39;;;;;;;6.57;5.33;;;;;;;;;;5103112;28;20560;-60
2023/06/05 06:25:06;;;;;;;15.13;6.40;;;;;;;;;;5093381;28;20996;-60
2023/06/05 06:27:32;;;;;;;6.53;5.00;;;;;;;;;;5100748;28;20465;-62
2023/06/05 06:29:59;;;;;;;8.27;5.10;;;;;;;;;;5101794;28;20455;-61
2023/06/05 06:32:27;;;;;;;5.83;5.07;;;;;;;;;;5101092;28;20478;-63
2023/06/05 06:34:54;;;;;;;8.00;5.07;;;;;;;;;;5101632;28;20478;-61
2023/06/05 06:37:20;;;;;;;6.60;5.57;;;;;;;;;;5101182;28;20490;-60
2023/06/05 06:39:47;;;;;;;10.03;6.13;;;;;;;;;;5101946;28;20987;-59
2023/06/05 06:42:14;;;;;;;7.43;4.90;;;;;;;;;;5100909;28;21071;-61
2023/06/05 06:44:40;;;;;;;8.03;5.80;;;;;;;;;;5101371;28;20487;-61
2023/06/05 06:47:07;;;;;;;6.73;5.00;;;;;;;;;;5096122;28;20920;-60
2023/06/05 06:49:35;;;;;;;7.43;5.60;;;;;;;;;;5099676;28;20469;-60
2023/06/05 06:52:02;;;;;;;5.80;4.90;;;;;;;;;;5092448;28;20471;-59
2023/06/05 06:54:29;;;;;;;9.27;5.40;;;;;;;;;;5092664;28;20501;-60
2023/06/05 06:56:56;;;;;;;10.77;5.87;;;;;;;;;;5094010;28;20553;-60
2023/06/05 06:59:23;;;;;;;10.63;6.00;;;;;;;;;;5101165;28;20482;-62
2023/06/05 07:02:08;;;;;;;9.23;5.20;;;;;;;;;;5100511;28;20514;-62
2023/06/05 07:04:36;;;;;;;9.57;5.37;;;;;;;;;;5100986;28;20471;-60
2023/06/05 07:07:03;;;;;;;6.80;5.13;;;;;;;;;;5101151;28;20498;-61
2023/06/05 07:09:29;;;;;;;9.10;5.73;;;;;;;;;;5101002;28;20516;-64
2023/06/05 07:11:55;;;;;;;9.97;5.47;;;;;;;;;;5100476;28;20547;-59
2023/06/05 07:14:22;;;;;;;7.13;5.40;;;;;;;;;;5101210;28;20489;-62
2023/06/05 07:16:51;;;;;;;9.00;5.60;;;;;;;;;;5100597;28;20499;-61
2023/06/05 07:19:17;;;;;;;6.90;5.77;;;;;;;;;;5100102;28;20881;-64
2023/06/05 07:21:45;;;;;;;7.40;5.37;;;;;;;;;;5100599;28;20530;-60
2023/06/05 07:24:12;;;;;;;6.90;5.33;;;;;;;;;;5102188;28;20497;-63
2023/06/05 07:26:38;;;;;;;6.77;4.60;;;;;;;;;;5100147;28;20534;-61
2023/06/05 07:29:04;;;;;;;7.93;5.23;;;;;;;;;;5100308;28;20489;-59
2023/06/05 07:31:31;;;;;;;10.17;5.70;;;;;;;;;;5100338;28;20499;-63
2023/06/05 07:33:57;;;;;;;8.80;5.67;;;;;;;;;;5100254;28;20459;-61
2023/06/05 07:36:24;;;;;;;6.70;4.87;;;;;;;;;;5099827;28;20544;-61
2023/06/05 07:38:52;;;;;;;5.20;4.43;;;;;;;;;;5100349;28;20451;-60
2023/06/05 07:41:18;;;;;;;5.80;4.70;;;;;;;;;;5099937;28;20670;-61
2023/06/05 07:43:45;;;;;;;5.20;4.70;;;;;;;;;;5100438;28;20581;-61
2023/06/05 07:46:11;;;;;;;7.30;4.60;;;;;;;;;;5099421;28;21059;-61
2023/06/05 07:48:37;;;;;;;7.40;4.43;;;;;;;;;;5099112;28;20454;-63
2023/06/05 07:51:04;;;;;;;7.57;4.97;;;;;;;;;;5099875;28;20506;-63
2023/06/05 07:53:30;;;;;;;7.67;5.07;;;;;;;;;;5099972;28;20483;-61
2023/06/05 07:55:58;;;;;;;5.67;4.40;;;;;;;;;;5098829;28;20482;-60
2023/06/05 07:58:27;;;;;;;7.60;4.80;;;;;;;;;;5100136;28;20470;-61
2023/06/05 08:00:53;;;;;;;6.33;4.67;;;;;;;;;;5099761;28;20513;-60
2023/06/05 08:03:20;;;;;;;8.80;4.90;;;;;;;;;;5100041;28;20447;-62
2023/06/05 08:05:47;;;;;;;5.37;4.70;;;;;;;;;;5099829;28;20482;-59
2023/06/05 08:08:13;;;;;;;9.03;4.83;;;;;;;;;;5100128;28;20467;-62
2023/06/05 08:10:40;;;;;;;7.20;4.83;;;;;;;;;;5099557;28;20538;-60
2023/06/05 08:13:07;;;;;;;7.10;4.37;;;;;;;;;;5100371;28;20507;-61
2023/06/05 08:15:34;;;;;;;4.87;4.20;;;;;;;;;;5099569;28;20498;-62
2023/06/05 08:18:00;;;;;;;6.43;3.50;;;;;;;;;;5099178;28;20546;-61
2023/06/05 08:20:26;;;;;;;7.37;4.13;;;;;;;;;;5099860;28;20481;-60
2023/06/05 08:22:53;;;;;;;6.70;4.50;;;;;;;;;;5100508;28;20515;-60
2023/06/05 08:25:20;;;;;;;5.93;4.03;;;;;;;;;;5099623;28;20663;-61
2023/06/05 08:27:46;;;;;;;4.93;4.43;;;;;;;;;;5100073;28;20504;-61
2023/06/05 08:30:14;;;;;;;9.27;4.37;;;;;;;;;;5099393;28;20455;-61
2023/06/05 08:32:40;;;;;;;6.07;4.10;;;;;;;;;;5099822;28;20514;-60
2023/06/05 08:35:07;;;;;;;5.97;4.50;;;;;;;;;;5099946;28;20470;-61
2023/06/05 08:37:34;;;;;;;6.70;4.20;;;;;;;;;;5099655;28;20930;-62
2023/06/05 08:40:05;;;;;;;5.00;4.13;;;;;;;;;;5099869;28;20510;-60
2023/06/05 08:42:32;;;;;;;6.67;4.73;;;;;;;;;;5099768;28;20493;-59
2023/06/05 08:44:59;;;;;;;6.03;4.47;;;;;;;;;;5090905;28;20652;-62
2023/06/05 08:47:29;;;;;;;9.67;4.83;;;;;;;;;;5094846;28;20879;-60
2023/06/05 08:49:55;;;;;;;6.63;4.40;;;;;;;;;;5099232;28;20451;-61
2023/06/05 08:52:23;;;;;;;5.90;3.60;;;;;;;;;;5099928;28;20474;-59
2023/06/05 08:54:50;;;;;;;6.40;3.70;;;;;;;;;;5098900;28;20470;-59
2023/06/05 08:57:16;;;;;;;8.40;4.13;;;;;;;;;;5099446;28;20550;-58
2023/06/05 08:59:44;;;;;;;4.70;3.57;;;;;;;;;;5099504;28;20510;-59
2023/06/05 09:02:10;;;;;;;4.60;3.80;;;;;;;;;;5099168;28;20516;-59
2023/06/05 09:04:39;;;;;;;4.40;3.70;;;;;;;;;;5100154;28;20533;-59
2023/06/05 09:07:06;;;;;;;4.20;3.40;;;;;;;;;;5102976;28;20495;-58
2023/06/05 09:09:33;;;;;;;6.30;5.00;;;;;;;;;;5103370;28;20476;-58
2023/06/05 09:12:03;;;;;;;5.97;3.23;;;;;;;;;;5101283;28;20501;-58
2023/06/05 09:14:31;;;;;;;5.57;4.10;;;;;;;;;;5103252;28;20523;-59
2023/06/05 09:16:58;;;;;;;5.27;4.23;;;;;;;;;;5101996;28;20513;-59
2023/06/05 09:19:27;;;;;;;7.83;4.37;;;;;;;;;;5102397;28;20514;-58
2023/06/05 09:21:55;;;;;;;4.47;3.33;;;;;;;;;;5102271;28;20475;-59
2023/06/05 09:24:22;;;;;;;5.77;3.87;;;;;;;;;;5103503;28;20467;-59
2023/06/05 09:26:54;;;;;;;5.80;4.10;;;;;;;;;;5073967;28;20471;-59
2023/06/05 09:29:22;;;;;;;8.50;4.23;;;;;;;;;;5084726;28;20506;-59
2023/06/05 09:31:49;;;;;;;4.90;3.50;;;;;;;;;;5102528;28;20506;-59
2023/06/05 09:34:21;;;;;;;11.17;4.23;;;;;;;;;;5101889;28;20504;-59
2023/06/05 09:36:47;;;;;;;5.07;3.73;;;;;;;;;;5102185;28;20509;-59
2023/06/05 09:39:19;;;;;;;6.13;3.83;;;;;;;;;;5102707;28;20710;-60
2023/06/05 09:41:46;;;;;;;6.43;4.00;;;;;;;;;;5102197;28;20471;-59
2023/06/05 09:44:13;;;;;;;8.77;3.77;;;;;;;;;;5092023;28;20509;-60
2023/06/05 09:46:51;;;;;;;4.77;4.27;;;;;;;;;;5101917;28;20558;-60
2023/06/05 09:49:17;;;;;;;7.37;4.30;;;;;;;;;;5093992;28;20483;-60
2023/06/05 09:51:43;;;;;;;4.70;3.50;;;;;;;;;;5102018;28;20494;-60
2023/06/05 09:54:11;;;;;;;6.63;3.63;;;;;;;;;;5102319;28;20533;-60
2023/06/05 09:56:40;;;;;;;5.47;4.10;;;;;;;;;;5101404;28;21014;-60
2023/06/05 09:59:07;;;;;;;7.97;4.17;;;;;;;;;;5101875;28;20974;-59
2023/06/05 10:01:36;;;;;;;6.20;4.90;;;;;;;;;;5102121;28;20475;-61
2023/06/05 10:04:04;;;;;;;5.77;4.00;;;;;;;;;;5102148;28;20577;-59
2023/06/05 10:06:32;;;;;;;6.90;3.90;;;;;;;;;;5101939;28;20562;-60
2023/06/05 10:09:00;;;;;;;7.40;4.17;;;;;;;;;;5102085;28;20482;-60
2023/06/05 10:11:27;;;;;;;7.40;4.07;;;;;;;;;;5101629;28;20911;-59
2023/06/05 10:13:55;;;;;;;7.67;4.50;;;;;;;;;;5102325;28;20450;-60
2023/06/05 10:16:21;;;;;;;5.53;4.20;;;;;;;;;;5101568;28;20498;-62
2023/06/05 10:18:48;;;;;;;8.70;4.73;;;;;;;;;;5101498;28;21013;-58
2023/06/05 10:21:16;;;;;;;6.40;4.20;;;;;;;;;;5101702;28;20534;-59
2023/06/05 10:23:43;;;;;;;4.67;3.60;;;;;;;;;;5102251;28;20443;-59
2023/06/05 10:26:13;;;;;;;7.03;3.63;;;;;;;;;;5101039;28;20490;-61
2023/06/05 10:28:47;;;;;;;6.33;3.70;;;;;;;;;;5101526;28;20992;-63
2023/06/05 10:31:28;;;;;;;6.50;3.83;;;;;;;;;;5092708;28;20491;-60
2023/06/05 10:34:09;;;;;;;5.07;3.50;;;;;;;;;;5098925;28;20483;-59
2023/06/05 10:36:49;;;;;;;3.30;3.00;;;;;;;;;;5086302;28;20574;-61
2023/06/05 10:39:15;;;;;;;6.90;3.20;;;;;;;;;;5101703;28;20511;-62
2023/06/05 10:41:42;;;;;;;3.13;2.60;;;;;;;;;;5101280;28;20467;-61
2023/06/05 10:44:08;;;;;;;8.70;3.40;;;;;;;;;;5101499;28;20510;-61
2023/06/05 10:46:36;;;;;;;5.87;3.00;;;;;;;;;;5101183;28;20499;-59
2023/06/05 10:49:07;;;;;;;5.90;3.73;;;;;;;;;;5095637;28;20498;-58
2023/06/05 10:51:37;;;;;;;6.27;3.00;;;;;;;;;;5098647;28;20674;-58
2023/06/05 10:54:03;;;;;;;3.80;2.90;;;;;;;;;;5101552;28;20454;-58
2023/06/05 10:56:48;;;;;;;5.83;2.90;;;;;;;;;;5100307;28;20495;-58
2023/06/05 10:59:15;;;;;;;5.80;2.90;;;;;;;;;;5100740;28;20561;-59
2023/06/05 11:01:43;;;;;;;4.80;2.83;;;;;;;;;;5100478;28;20852;-58
2023/06/05 11:04:09;;;;;;;5.30;2.70;;;;;;;;;;5101074;28;20458;-58
2023/06/05 11:06:37;;;;;;;6.07;2.80;;;;;;;;;;5101151;28;20475;-58
2023/06/05 11:09:07;;;;;;;7.07;3.43;;;;;;;;;;5101013;28;20451;-58
2023/06/05 11:11:49;;;;;;;4.67;2.60;;;;;;;;;;5100393;28;20565;-58
2023/06/05 11:14:15;;;;;;;5.37;2.50;;;;;;;;;;5101116;28;20453;-59
2023/06/05 11:16:43;;;;;;;3.37;1.90;;;;;;;;;;5100340;28;20628;-58
2023/06/05 11:19:29;;;;;;;6.00;2.70;;;;;;;;;;5103006;28;20489;-58
2023/06/05 11:22:07;;;;;;;3.10;2.67;;;;;;;;;;5092572;28;20485;-59
2023/06/05 11:24:35;;;;;;;7.27;2.10;;;;;;;;;;5100926;28;20449;-60
2023/06/05 11:27:01;;;;;;;4.33;2.47;;;;;;;;;;5099737;28;20475;-59
2023/06/05 11:29:29;;;;;;;2.83;2.53;;;;;;;;;;5100397;28;20466;-59
2023/06/05 11:31:57;;;;;;;3.97;2.17;;;;;;;;;;5100235;28;20497;-59
2023/06/05 11:34:23;;;;;;;3.03;2.23;;;;;;;;;;5100605;28;20514;-59
2023/06/05 11:36:50;;;;;;;4.30;2.00;;;;;;;;;;5100081;28;20502;-60
2023/06/05 11:39:16;;;;;;;4.20;2.10;;;;;;;;;;5100151;28;20462;-60
2023/06/05 11:41:46;;;;;;;4.93;2.80;;;;;;;;;;5100525;28;20491;-60
2023/06/05 11:44:12;;;;;;;3.47;2.03;;;;;;;;;;5100269;28;20498;-61
2023/06/05 11:46:39;;;;;;;2.60;2.40;;;;;;;;;;5100406;28;20531;-61
2023/06/05 11:49:10;;;;;;;2.70;2.17;;;;;;;;;;5099327;28;20451;-60
2023/06/05 11:51:37;;;;;;;3.13;2.20;;;;;;;;;;5100304;28;20482;-60
2023/06/05 11:54:05;;;;;;;4.47;1.97;;;;;;;;;;5100631;28;20538;-60
2023/06/05 11:56:32;;;;;;;4.93;2.63;;;;;;;;;;5099653;28;20551;-59
2023/06/05 11:58:59;;;;;;;4.63;2.00;;;;;;;;;;5099771;28;20582;-61
2023/06/05 12:01:31;;;;;;;6.00;1.90;;;;;;;;;;5099852;28;20474;-62
2023/06/05 12:04:03;;;;;;;5.30;2.20;;;;;;;;;;5100267;28;20459;-61
2023/06/05 12:06:31;;;;;;;2.93;2.07;;;;;;;;;;5097488;28;20508;-59
2023/06/05 12:09:07;;;;;;;3.23;2.10;;;;;;;;;;5099853;28;20538;-62
2023/06/05 12:11:34;;;;;;;3.10;2.30;;;;;;;;;;5099530;28;20504;-61
2023/06/05 12:14:01;;;;;;;3.60;2.20;;;;;;;;;;5100348;28;20450;-60
2023/06/05 12:16:31;;;;;;;3.23;2.10;;;;;;;;;;5102620;27;20479;-60
2023/06/05 12:18:58;;;;;;;5.00;2.43;;;;;;;;;;5098805;28;20988;-61
2023/06/05 12:21:25;;;;;;;3.90;2.23;;;;;;;;;;5099881;28;20470;-61
2023/06/05 12:24:01;;;;;;;3.63;2.10;;;;;;;;;;5100824;28;20512;-61
2023/06/05 12:26:29;;;;;;;3.07;2.17;;;;;;;;;;5099442;28;20585;-60
2023/06/05 12:29:03;;;;;;;5.00;2.50;;;;;;;;;;5100171;28;20455;-60
2023/06/05 12:31:32;;;;;;;3.90;2.30;;;;;;;;;;5099480;28;20471;-58
2023/06/05 12:33:59;;;;;;;5.73;2.23;;;;;;;;;;5099653;28;20534;-60
2023/06/05 12:36:25;;;;;;;4.13;2.40;;;;;;;;;;5099374;28;20487;-60
2023/06/05 12:38:53;;;;;;;3.03;2.50;;;;;;;;;;5101052;28;20491;-62
2023/06/05 12:41:19;;;;;;;3.30;2.43;;;;;;;;;;5103274;28;20558;-61
2023/06/05 12:43:46;;;;;;;3.80;3.03;;;;;;;;;;5103691;28;20589;-60
2023/06/05 12:46:13;;;;;;;8.73;2.27;;;;;;;;;;5103119;28;20562;-63
2023/06/05 12:48:39;;;;;;;3.37;2.57;;;;;;;;;;5102791;28;20764;-60
2023/06/05 12:51:06;;;;;;;3.17;2.30;;;;;;;;;;5102583;28;20954;-59
2023/06/05 12:53:32;;;;;;;2.40;1.93;;;;;;;;;;5101324;28;20457;-61
2023/06/05 12:56:00;;;;;;;2.60;2.40;;;;;;;;;;5102680;28;20467;-59
2023/06/05 12:58:26;;;;;;;3.70;2.27;;;;;;;;;;5103274;28;20521;-60
2023/06/05 13:00:53;;;;;;;3.83;2.17;;;;;;;;;;5102321;28;20554;-60
2023/06/05 13:03:20;;;;;;;3.30;2.10;;;;;;;;;;5103469;28;20522;-60
2023/06/05 13:05:46;;;;;;;3.10;2.30;;;;;;;;;;5103116;28;20481;-60
2023/06/05 13:08:13;;;;;;;2.50;2.30;;;;;;;;;;5103679;28;20489;-60
2023/06/05 13:10:40;;;;;;;2.50;2.00;;;;;;;;;;5102869;28;20509;-60
2023/06/05 13:13:07;;;;;;;5.37;2.40;;;;;;;;;;5103514;28;20478;-59
2023/06/05 13:15:34;;;;;;;6.93;2.50;;;;;;;;;;5102619;28;21061;-61
2023/06/05 13:18:00;;;;;;;2.60;2.10;;;;;;;;;;5102507;28;20482;-60
2023/06/05 13:20:27;;;;;;;2.60;2.10;;;;;;;;;;5089488;28;20955;-59
2023/06/05 13:22:53;;;;;;;3.93;2.60;;;;;;;;;;5103884;28;20442;-59
2023/06/05 13:25:20;;;;;;;5.47;2.40;;;;;;;;;;5101903;28;20511;-60
2023/06/05 13:27:46;;;;;;;3.50;2.40;;;;;;;;;;5102846;28;20959;-60
2023/06/05 13:30:14;;;;;;;4.47;2.53;;;;;;;;;;5101772;28;20454;-60
2023/06/05 13:32:41;;;;;;;3.00;2.30;;;;;;;;;;5102724;28;20530;-60
2023/06/05 13:35:09;;;;;;;6.70;2.70;;;;;;;;;;5101731;28;20451;-60
2023/06/05 13:37:35;;;;;;;3.77;2.33;;;;;;;;;;5102752;28;20461;-60
2023/06/05 13:40:03;;;;;;;2.80;2.10;;;;;;;;;;5102430;28;21045;-60
2023/06/05 13:42:29;;;;;;;3.47;2.20;;;;;;;;;;5101684;28;20479;-60
2023/06/05 13:44:55;;;;;;;2.90;2.33;;;;;;;;;;5102588;28;20493;-60
2023/06/05 13:47:23;;;;;;;4.67;2.33;;;;;;;;;;5102072;28;20546;-59
2023/06/05 13:49:49;;;;;;;5.40;2.40;;;;;;;;;;5102265;28;20459;-59
2023/06/05 13:52:16;;;;;;;3.50;2.60;;;;;;;;;;5102295;28;20471;-59
2023/06/05 13:54:43;;;;;;;4.30;2.40;;;;;;;;;;5099201;28;20955;-59
2023/06/05 13:57:10;;;;;;;5.00;2.80;;;;;;;;;;5094240;28;20474;-60
2023/06/05 13:59:36;;;;;;;3.60;2.57;;;;;;;;;;5100982;28;21078;-60
2023/06/05 14:02:02;;;;;;;3.63;2.43;;;;;;;;;;5100328;28;20560;-60
2023/06/05 14:04:30;;;;;;;4.10;2.53;;;;;;;;;;5100722;28;20455;-61
2023/06/05 14:06:58;;;;;;;10.10;3.53;;;;;;;;;;5101179;28;20490;-61
2023/06/05 14:09:24;;;;;;;4.13;2.40;;;;;;;;;;5101342;28;20450;-60
2023/06/05 14:11:51;;;;;;;5.97;2.80;;;;;;;;;;5099733;28;20484;-60
2023/06/05 14:14:18;;;;;;;4.60;2.47;;;;;;;;;;5101354;28;20557;-60
2023/06/05 14:16:45;;;;;;;3.47;2.20;;;;;;;;;;5099484;28;20505;-60
2023/06/05 14:19:13;;;;;;;3.47;2.30;;;;;;;;;;5101026;28;20489;-59
2023/06/05 14:21:42;;;;;;;4.43;2.20;;;;;;;;;;5099405;28;20883;-59
2023/06/05 14:24:08;;;;;;;3.50;2.60;;;;;;;;;;5100957;28;20447;-59
2023/06/05 14:26:34;;;;;;;3.20;2.43;;;;;;;;;;5101408;28;20542;-60
2023/06/05 14:29:01;;;;;;;2.60;2.00;;;;;;;;;;5098247;28;20447;-59
2023/06/05 14:31:28;;;;;;;5.07;2.17;;;;;;;;;;5100606;28;20578;-59
2023/06/05 14:33:54;;;;;;;3.80;2.10;;;;;;;;;;5099329;28;20455;-60
2023/06/05 14:36:21;;;;;;;3.13;2.33;;;;;;;;;;5101150;28;20480;-59
2023/06/05 14:38:52;;;;;;;4.10;2.10;;;;;;;;;;5100100;28;20509;-60
2023/06/05 14:41:18;;;;;;;2.57;2.00;;;;;;;;;;5099895;28;20510;-59
2023/06/05 14:43:47;;;;;;;7.03;2.10;;;;;;;;;;5098180;28;20490;-60
2023/06/05 14:46:14;;;;;;;4.23;2.00;;;;;;;;;;5099717;28;20493;-60